Time;durP1;ratioP1;P1;durP2;ratioP2;P2;SDS_P1;SDS_P2;PMS_P1;PMS_P2;Temp;Humidity;BMP_temperature;BMP_pressure;BME280_temperature;BME280_humidity;BME280_pressure;Samples;Min_cycle;Max_cycle;Signal;HPM_P1;HPM_P2
2021/06/05 00:01:34;;;;;;;103.00;51.83;;;17.90;99.90;;;;;;5094019;28;20303;-65
2021/06/05 00:04:01;;;;;;;132.67;54.20;;;17.90;99.90;;;;;;5113065;28;20272;-66
2021/06/05 00:06:28;;;;;;;93.13;53.53;;;17.90;99.90;;;;;;5110059;28;20555;-66
2021/06/05 00:08:54;;;;;;;109.03;53.70;;;17.80;99.90;;;;;;5092471;28;20232;-66
2021/06/05 00:11:22;;;;;;;121.17;61.00;;;17.90;99.90;;;;;;5092927;28;20166;-66
2021/06/05 00:13:52;;;;;;;128.50;63.93;;;17.80;99.90;;;;;;5113133;28;20169;-66
2021/06/05 00:16:22;;;;;;;154.13;66.50;;;17.80;99.90;;;;;;5112327;28;20168;-66
2021/06/05 00:18:49;;;;;;;157.23;66.40;;;17.90;99.90;;;;;;5073547;28;20201;-65
2021/06/05 00:21:17;;;;;;;139.33;63.40;;;18.00;99.90;;;;;;5092026;28;20181;-66
2021/06/05 00:23:42;;;;;;;144.63;62.90;;;18.00;99.90;;;;;;5074503;28;20181;-66
2021/06/05 00:26:09;;;;;;;122.40;61.40;;;18.00;99.90;;;;;;5092176;28;20174;-66
2021/06/05 00:28:35;;;;;;;132.87;60.47;;;18.00;99.90;;;;;;5091720;28;20216;-66
2021/06/05 00:31:02;;;;;;;110.20;56.47;;;17.90;99.90;;;;;;5112258;28;20520;-66
2021/06/05 00:33:29;;;;;;;120.77;59.53;;;17.90;99.90;;;;;;5095541;28;20201;-66
2021/06/05 00:35:55;;;;;;;137.37;61.57;;;17.90;99.90;;;;;;5092070;28;20566;-66
2021/06/05 00:38:22;;;;;;;147.47;64.00;;;17.90;99.90;;;;;;5107445;28;20284;-66
2021/06/05 00:40:52;;;;;;;125.90;60.57;;;17.90;99.90;;;;;;5112058;28;20542;-66
2021/06/05 00:43:22;;;;;;;119.83;58.97;;;18.00;99.90;;;;;;5096580;28;20181;-66
2021/06/05 00:45:48;;;;;;;108.13;55.20;;;18.00;99.90;;;;;;5074086;28;20178;-66
2021/06/05 00:48:16;;;;;;;105.30;54.73;;;18.00;99.90;;;;;;5106007;28;20223;-66
2021/06/05 00:50:43;;;;;;;101.63;53.10;;;17.90;99.90;;;;;;5111687;28;20221;-66
2021/06/05 00:53:11;;;;;;;81.53;49.43;;;18.00;99.90;;;;;;5098771;28;20209;-66
2021/06/05 00:55:43;;;;;;;103.83;50.77;;;18.00;99.90;;;;;;5091816;28;20169;-66
2021/06/05 00:58:09;;;;;;;73.20;46.50;;;18.00;99.90;;;;;;5104007;28;20203;-66
2021/06/05 01:00:38;;;;;;;78.33;46.33;;;17.90;99.90;;;;;;5111669;28;20697;-66
2021/06/05 01:03:06;;;;;;;84.97;47.33;;;18.00;99.90;;;;;;5100448;28;20177;-65
2021/06/05 01:05:33;;;;;;;76.93;47.03;;;18.10;99.90;;;;;;5091703;28;20169;-66
2021/06/05 01:08:14;;;;;;;73.40;45.10;;;18.00;99.90;;;;;;5101559;28;20184;-66
2021/06/05 01:10:42;;;;;;;67.63;43.20;;;17.90;99.90;;;;;;5111461;28;20231;-66
2021/06/05 01:13:20;;;;;;;74.03;44.70;;;17.90;99.90;;;;;;5100911;28;20174;-66
2021/06/05 01:15:50;;;;;;;71.67;44.07;;;17.70;99.90;;;;;;5091811;28;20621;-66
2021/06/05 01:18:25;;;;;;;76.07;44.20;;;17.80;99.90;;;;;;5108599;28;20228;-66
2021/06/05 01:21:24;;;;;;;78.87;46.73;;;17.70;99.90;;;;;;5111655;28;20176;-65
2021/06/05 01:24:26;;;;;;;80.90;48.33;;;17.70;99.90;;;;;;5091856;28;20549;-66
2021/06/05 01:27:06;;;;;;;87.33;50.40;;;17.60;99.90;;;;;;5095899;28;20168;-66
2021/06/05 01:29:35;;;;;;;85.93;48.53;;;17.60;99.90;;;;;;5112528;28;20212;-65
2021/06/05 01:32:06;;;;;;;80.87;48.07;;;17.50;99.90;;;;;;5110773;28;20639;-66
2021/06/05 01:34:36;;;;;;;84.87;48.20;;;17.30;99.90;;;;;;5095445;28;20169;-65
2021/06/05 01:37:03;;;;;;;93.43;51.23;;;17.30;99.90;;;;;;5096633;28;20180;-66
2021/06/05 01:39:32;;;;;;;96.47;52.47;;;17.30;99.90;;;;;;5094321;28;20219;-66
2021/06/05 01:42:04;;;;;;;100.53;52.77;;;17.20;99.90;;;;;;5106496;28;20533;-66
2021/06/05 01:44:33;;;;;;;94.37;52.03;;;17.20;99.90;;;;;;5115638;28;20180;-66
2021/06/05 01:46:59;;;;;;;116.70;58.87;;;17.20;99.90;;;;;;5104477;28;20177;-66
2021/06/05 01:49:25;;;;;;;117.13;57.43;;;17.20;99.90;;;;;;5095105;28;20201;-66
2021/06/05 01:51:56;;;;;;;115.30;56.90;;;17.20;99.90;;;;;;5104120;28;20669;-66
2021/06/05 01:54:41;;;;;;;119.83;58.47;;;17.00;99.90;;;;;;5115542;28;20233;-66
2021/06/05 01:57:12;;;;;;;151.00;68.80;;;17.00;99.90;;;;;;5104479;28;20173;-66
2021/06/05 01:59:38;;;;;;;151.20;66.67;;;17.00;99.90;;;;;;5095118;28;20189;-66
2021/06/05 02:02:05;;;;;;;152.10;66.93;;;17.00;99.90;;;;;;5098728;28;20181;-65
2021/06/05 02:04:31;;;;;;;162.90;70.03;;;17.00;99.90;;;;;;5095103;28;20197;-65
2021/06/05 02:06:58;;;;;;;164.33;75.93;;;17.00;99.90;;;;;;5103287;28;20179;-66
2021/06/05 02:09:25;;;;;;;172.60;76.97;;;17.00;99.90;;;;;;5115005;28;20568;-66
2021/06/05 02:12:00;;;;;;;176.17;74.03;;;17.00;99.90;;;;;;5107672;28;20165;-66
2021/06/05 02:14:35;;;;;;;167.50;71.47;;;17.10;99.90;;;;;;5094759;28;20173;-66
2021/06/05 02:17:02;;;;;;;166.60;72.37;;;17.10;99.90;;;;;;5095984;28;20180;-66
2021/06/05 02:19:33;;;;;;;168.47;75.83;;;17.10;99.90;;;;;;5095090;28;20551;-70
2021/06/05 02:22:01;;;;;;;162.47;73.03;;;17.10;99.90;;;;;;5102727;28;20169;-69
2021/06/05 02:24:32;;;;;;;167.13;75.07;;;17.20;99.90;;;;;;5116534;28;20668;-69
2021/06/05 02:27:00;;;;;;;166.53;72.53;;;17.20;99.90;;;;;;5114836;28;20173;-69
2021/06/05 02:29:28;;;;;;;170.63;76.03;;;17.20;99.90;;;;;;5116112;28;20201;-70
2021/06/05 02:31:56;;;;;;;171.00;73.83;;;17.20;99.90;;;;;;5110486;28;20239;-68
2021/06/05 02:34:26;;;;;;;191.50;76.30;;;17.20;99.90;;;;;;5077535;28;20200;-69
2021/06/05 02:36:55;;;;;;;188.10;80.83;;;17.20;99.90;;;;;;5099870;28;20169;-68
2021/06/05 02:39:21;;;;;;;196.07;81.87;;;17.20;99.90;;;;;;5114852;28;20279;-70
2021/06/05 02:41:49;;;;;;;209.80;88.07;;;17.30;99.90;;;;;;5093951;28;20235;-70
2021/06/05 02:44:18;;;;;;;193.53;79.63;;;17.30;99.90;;;;;;5095366;28;20216;-70
2021/06/05 02:46:45;;;;;;;194.70;77.83;;;17.30;99.90;;;;;;5098613;28;20248;-71
2021/06/05 02:49:19;;;;;;;214.67;87.03;;;17.40;99.90;;;;;;5116003;28;20196;-71
2021/06/05 02:52:28;;;;;;;188.73;76.20;;;17.40;99.90;;;;;;5112086;28;20184;-67
2021/06/05 02:55:12;;;;;;;186.10;78.80;;;17.50;99.90;;;;;;5084046;28;20180;-69
2021/06/05 02:57:38;;;;;;;160.50;75.40;;;17.50;99.90;;;;;;5086659;28;20610;-69
2021/06/05 03:00:10;;;;;;;168.77;76.07;;;17.50;99.90;;;;;;5115088;28;20200;-69
2021/06/05 03:02:35;;;;;;;167.43;75.70;;;17.60;99.90;;;;;;5106056;28;20184;-68
2021/06/05 03:05:01;;;;;;;159.60;73.47;;;17.70;99.90;;;;;;5095324;28;20233;-70
2021/06/05 03:07:27;;;;;;;160.60;73.60;;;17.70;99.90;;;;;;5102122;28;20184;-68
2021/06/05 03:09:52;;;;;;;155.80;71.93;;;17.60;99.90;;;;;;5115177;28;20208;-68
2021/06/05 03:12:18;;;;;;;153.47;72.27;;;17.60;99.90;;;;;;5109337;28;20223;-66
2021/06/05 03:14:44;;;;;;;149.23;70.03;;;17.50;99.90;;;;;;5094622;28;20161;-68
2021/06/05 03:17:10;;;;;;;164.83;74.00;;;17.50;99.90;;;;;;5102983;28;20177;-69
2021/06/05 03:19:36;;;;;;;154.20;71.53;;;17.60;99.90;;;;;;5095087;28;20267;-69
2021/06/05 03:22:03;;;;;;;158.40;73.60;;;17.60;99.90;;;;;;5107870;28;20634;-67
2021/06/05 03:24:29;;;;;;;157.63;75.93;;;17.60;99.90;;;;;;5114883;28;20238;-69
2021/06/05 03:26:56;;;;;;;153.10;70.67;;;17.70;99.90;;;;;;5102981;28;20181;-69
2021/06/05 03:29:22;;;;;;;155.33;69.47;;;17.70;99.90;;;;;;5094678;28;20693;-67
2021/06/05 03:31:47;;;;;;;155.13;69.53;;;17.80;99.90;;;;;;5104728;28;20203;-70
2021/06/05 03:34:13;;;;;;;147.97;68.33;;;17.70;99.90;;;;;;5115077;28;20199;-68
2021/06/05 03:36:39;;;;;;;142.43;66.80;;;17.80;99.90;;;;;;5105916;28;20281;-67
2021/06/05 03:39:06;;;;;;;148.50;67.37;;;17.80;99.90;;;;;;5093426;28;20189;-69
2021/06/05 03:41:32;;;;;;;140.37;64.43;;;17.80;99.90;;;;;;5083237;28;20177;-69
2021/06/05 03:43:59;;;;;;;135.87;64.90;;;17.90;99.90;;;;;;5115243;28;20168;-68
2021/06/05 03:46:24;;;;;;;145.47;64.50;;;17.90;99.90;;;;;;5109141;28;20270;-70
2021/06/05 03:48:50;;;;;;;140.40;61.20;;;17.90;99.90;;;;;;5094493;28;20276;-72
2021/06/05 03:51:16;;;;;;;136.03;62.60;;;17.90;99.90;;;;;;5096848;28;20177;-65
2021/06/05 03:53:41;;;;;;;136.33;61.90;;;17.90;99.90;;;;;;5112731;28;20169;-65
2021/06/05 03:56:07;;;;;;;144.20;61.67;;;17.90;99.90;;;;;;5110919;28;20167;-65
2021/06/05 03:58:41;;;;;;;133.20;60.57;;;17.80;99.90;;;;;;5092735;28;20666;-64
2021/06/05 04:01:13;;;;;;;135.93;58.03;;;17.80;99.90;;;;;;5093492;28;20524;-65
2021/06/05 04:03:39;;;;;;;124.40;58.20;;;17.80;99.90;;;;;;5113466;28;20214;-65
2021/06/05 04:06:05;;;;;;;131.13;57.97;;;17.80;99.90;;;;;;5094018;28;20176;-64
2021/06/05 04:08:31;;;;;;;119.67;56.30;;;17.90;99.90;;;;;;5092578;28;20190;-65
2021/06/05 04:10:57;;;;;;;129.73;56.13;;;17.90;99.90;;;;;;5092523;28;20536;-65
2021/06/05 04:13:22;;;;;;;123.33;56.33;;;17.80;99.90;;;;;;5111572;28;20187;-65
2021/06/05 04:15:48;;;;;;;118.30;55.43;;;17.80;99.90;;;;;;5112919;28;20200;-64
2021/06/05 04:18:20;;;;;;;128.93;55.70;;;17.90;99.90;;;;;;5076665;28;20537;-65
2021/06/05 04:20:45;;;;;;;123.30;55.63;;;17.80;99.90;;;;;;5091974;28;20169;-65
2021/06/05 04:23:12;;;;;;;121.03;55.00;;;17.90;99.90;;;;;;5110381;28;20176;-65
2021/06/05 04:25:38;;;;;;;114.70;54.80;;;17.80;99.90;;;;;;5112732;28;20169;-64
2021/06/05 04:28:06;;;;;;;112.63;53.10;;;17.90;99.90;;;;;;5095683;28;20301;-65
2021/06/05 04:30:38;;;;;;;115.70;55.83;;;17.90;99.90;;;;;;5092456;28;20295;-65
2021/06/05 04:33:05;;;;;;;112.53;52.47;;;18.00;99.90;;;;;;5107614;28;20268;-65
2021/06/05 04:35:30;;;;;;;106.63;53.40;;;18.00;99.90;;;;;;5112499;28;20173;-65
2021/06/05 04:37:56;;;;;;;89.60;48.60;;;18.10;99.90;;;;;;5097161;28;20188;-65
2021/06/05 04:40:23;;;;;;;91.97;50.30;;;18.10;99.90;;;;;;5091715;28;20173;-65
2021/06/05 04:42:50;;;;;;;87.93;48.00;;;18.10;99.90;;;;;;5104338;28;20279;-65
2021/06/05 04:45:18;;;;;;;88.10;48.33;;;18.10;99.90;;;;;;5112286;28;20168;-65
2021/06/05 04:47:44;;;;;;;92.40;47.50;;;18.10;99.90;;;;;;5100749;28;20188;-65
2021/06/05 04:50:11;;;;;;;80.47;46.13;;;18.20;99.90;;;;;;5091399;28;20205;-65
2021/06/05 04:52:37;;;;;;;76.03;45.23;;;18.20;99.90;;;;;;5101377;28;20183;-65
2021/06/05 04:55:05;;;;;;;80.67;44.40;;;18.20;99.90;;;;;;5112212;28;20168;-65
2021/06/05 04:57:31;;;;;;;72.57;43.40;;;18.20;99.90;;;;;;5102680;28;20188;-65
2021/06/05 04:59:57;;;;;;;65.70;40.47;;;18.10;99.90;;;;;;5091546;28;20193;-65
2021/06/05 05:02:23;;;;;;;73.80;42.27;;;18.10;99.90;;;;;;5098138;28;20212;-65
2021/06/05 05:04:48;;;;;;;63.63;40.37;;;18.10;99.90;;;;;;5111777;28;20541;-65
2021/06/05 05:07:15;;;;;;;59.27;38.60;;;18.10;99.90;;;;;;5107083;28;20184;-65
2021/06/05 05:09:40;;;;;;;58.13;37.73;;;18.20;99.90;;;;;;5091527;28;20197;-65
2021/06/05 05:12:07;;;;;;;54.00;36.33;;;18.20;99.90;;;;;;5095084;28;20171;-65
2021/06/05 05:14:34;;;;;;;52.50;36.57;;;18.20;99.90;;;;;;5111900;28;20630;-65
2021/06/05 05:17:00;;;;;;;50.00;36.13;;;18.30;99.90;;;;;;5094390;28;20654;-65
2021/06/05 05:19:25;;;;;;;51.40;35.00;;;18.50;99.90;;;;;;5105303;28;20273;-65
2021/06/05 05:21:51;;;;;;;46.50;33.10;;;18.70;99.90;;;;;;5111696;28;20183;-65
2021/06/05 05:24:17;;;;;;;46.30;31.50;;;18.90;99.90;;;;;;5099211;28;20204;-65
2021/06/05 05:26:43;;;;;;;39.97;31.53;;;19.20;99.90;;;;;;5091410;28;20201;-65
2021/06/05 05:29:08;;;;;;;36.60;28.67;;;19.40;99.90;;;;;;5101320;28;20234;-65
2021/06/05 05:31:34;;;;;;;38.67;29.43;;;19.50;99.90;;;;;;5111520;28;20222;-65
2021/06/05 05:34:00;;;;;;;30.90;27.03;;;19.60;99.90;;;;;;5103018;28;20181;-65
2021/06/05 05:36:33;;;;;;;32.07;26.43;;;19.90;99.90;;;;;;5091411;28;20201;-65
2021/06/05 05:39:00;;;;;;;29.57;25.73;;;20.20;99.90;;;;;;5098096;28;20770;-65
2021/06/05 05:41:27;;;;;;;31.53;25.50;;;20.40;99.90;;;;;;5109455;28;20233;-66
2021/06/05 05:43:54;;;;;;;28.13;25.10;;;20.60;99.90;;;;;;5105215;28;20174;-65
2021/06/05 05:46:20;;;;;;;26.85;23.90;;;20.90;99.90;;;;;;5091190;28;20204;-65
2021/06/05 05:48:48;;;;;;;27.00;24.08;;;21.20;99.90;;;;;;5095142;28;20232;-65
2021/06/05 05:51:16;;;;;;;25.23;22.38;;;21.30;99.90;;;;;;5111410;28;20165;-65
2021/06/05 05:53:42;;;;;;;29.92;25.52;;;21.40;99.90;;;;;;5108217;28;20170;-65
2021/06/05 05:56:10;;;;;;;30.23;26.88;;;21.50;99.90;;;;;;5091009;28;20304;-65
2021/06/05 05:58:39;;;;;;;30.40;25.95;;;21.50;99.90;;;;;;5092580;28;20197;-65
2021/06/05 06:01:06;;;;;;;35.83;28.48;;;21.60;99.90;;;;;;5111294;28;20169;-65
2021/06/05 06:03:32;;;;;;;36.57;29.70;;;21.60;99.90;;;;;;5110938;28;20168;-65
2021/06/05 06:05:58;;;;;;;34.30;30.53;;;21.40;99.90;;;;;;5091155;28;20169;-65
2021/06/05 06:08:23;;;;;;;41.17;32.43;;;21.10;99.90;;;;;;5072898;28;20255;-65
2021/06/05 06:10:50;;;;;;;43.30;33.47;;;20.90;99.90;;;;;;5109340;28;20212;-65
2021/06/05 06:13:16;;;;;;;43.47;34.22;;;20.80;99.90;;;;;;5111179;28;20225;-65
2021/06/05 06:15:42;;;;;;;44.05;34.53;;;20.80;99.90;;;;;;5094902;28;20174;-65
2021/06/05 06:18:11;;;;;;;45.47;34.80;;;20.90;99.90;;;;;;5094454;28;20212;-65
2021/06/05 06:20:42;;;;;;;44.00;33.70;;;20.90;99.90;;;;;;5095425;28;20212;-65
2021/06/05 06:23:25;;;;;;;40.93;32.70;;;21.00;99.90;;;;;;5094437;28;20170;-65
2021/06/05 06:25:52;;;;;;;42.95;32.53;;;21.10;99.90;;;;;;5096018;28;20173;-65
2021/06/05 06:28:26;;;;;;;40.60;31.60;;;21.10;99.90;;;;;;5094340;28;20216;-65
2021/06/05 06:30:53;;;;;;;42.03;31.70;;;21.00;99.90;;;;;;5110338;28;20200;-65
2021/06/05 06:33:20;;;;;;;38.97;32.17;;;20.80;99.90;;;;;;5114586;28;20176;-65
2021/06/05 06:35:46;;;;;;;38.93;32.17;;;20.70;99.90;;;;;;5099436;28;20489;-65
2021/06/05 06:38:22;;;;;;;45.80;34.20;;;20.70;99.90;;;;;;5093242;28;20189;-65
2021/06/05 06:40:48;;;;;;;41.10;33.43;;;20.70;99.90;;;;;;5108411;28;20255;-66
2021/06/05 06:43:17;;;;;;;43.20;33.93;;;20.80;99.90;;;;;;5114521;28;20211;-65
2021/06/05 06:45:43;;;;;;;41.85;33.92;;;20.80;99.90;;;;;;5097740;28;20173;-65
2021/06/05 06:48:10;;;;;;;43.75;34.45;;;20.90;99.90;;;;;;5099712;28;20199;-66
2021/06/05 06:50:36;;;;;;;45.30;33.13;;;21.00;99.90;;;;;;5114141;28;20658;-65
2021/06/05 06:53:02;;;;;;;45.08;35.15;;;21.10;99.90;;;;;;5108944;28;20706;-66
2021/06/05 06:55:28;;;;;;;44.97;34.80;;;21.20;99.90;;;;;;5093995;28;20253;-65
2021/06/05 06:57:54;;;;;;;44.43;35.07;;;21.30;99.90;;;;;;5096900;28;20172;-65
2021/06/05 07:00:43;;;;;;;41.90;33.67;;;21.40;99.90;;;;;;5113799;28;20184;-65
2021/06/05 07:03:09;;;;;;;40.70;33.47;;;21.70;99.90;;;;;;5108758;28;20685;-65
2021/06/05 07:05:36;;;;;;;45.13;33.65;;;21.80;99.90;;;;;;5093776;28;20180;-65
2021/06/05 07:08:23;;;;;;;38.33;32.38;;;21.80;99.90;;;;;;5096352;28;20558;-65
2021/06/05 07:10:52;;;;;;;41.07;32.90;;;21.80;99.90;;;;;;5113521;28;20192;-65
2021/06/05 07:13:18;;;;;;;45.40;34.10;;;21.60;99.90;;;;;;5109267;28;20214;-65
2021/06/05 07:15:44;;;;;;;46.13;33.03;;;21.60;99.90;;;;;;5075415;28;20245;-65
2021/06/05 07:18:11;;;;;;;42.95;32.65;;;21.70;99.90;;;;;;5095619;28;20899;-65
2021/06/05 07:20:38;;;;;;;39.95;32.80;;;21.80;99.90;;;;;;5113614;28;20661;-65
2021/06/05 07:23:04;;;;;;;39.70;33.85;;;21.90;99.90;;;;;;5112203;28;20217;-65
2021/06/05 07:25:30;;;;;;;42.17;32.97;;;22.10;99.90;;;;;;5093539;28;20169;-65
2021/06/05 07:27:57;;;;;;;42.17;32.55;;;22.20;99.90;;;;;;5092237;28;20226;-65
2021/06/05 07:30:24;;;;;;;37.28;31.45;;;22.40;99.90;;;;;;5112541;28;20706;-65
2021/06/05 07:32:51;;;;;;;38.40;32.17;;;22.60;99.90;;;;;;5113442;28;20188;-64
2021/06/05 07:35:17;;;;;;;40.20;33.20;;;22.70;99.90;;;;;;5094922;28;20436;-65
2021/06/05 07:37:43;;;;;;;43.15;34.47;;;22.80;99.90;;;;;;5093273;28;20166;-65
2021/06/05 07:40:11;;;;;;;41.95;32.30;;;23.00;99.90;;;;;;5093780;28;20212;-65
2021/06/05 07:42:37;;;;;;;40.10;32.53;;;23.10;99.90;;;;;;5079621;28;20180;-66
2021/06/05 07:45:05;;;;;;;37.92;30.45;;;22.80;99.90;;;;;;5092666;28;20169;-65
2021/06/05 07:47:31;;;;;;;39.67;31.20;;;22.70;99.90;;;;;;5105247;28;20196;-65
2021/06/05 07:49:56;;;;;;;37.45;30.48;;;22.50;99.90;;;;;;5112940;28;20239;-65
2021/06/05 07:52:26;;;;;;;38.85;31.30;;;22.30;99.90;;;;;;5102655;28;20177;-65
2021/06/05 07:54:54;;;;;;;38.35;30.98;;;22.30;99.90;;;;;;5092819;28;20555;-65
2021/06/05 07:57:21;;;;;;;39.78;32.17;;;22.20;99.90;;;;;;5075586;28;20173;-65
2021/06/05 07:59:47;;;;;;;43.97;32.90;;;22.20;99.90;;;;;;5092578;28;20216;-65
2021/06/05 08:02:13;;;;;;;38.45;31.23;;;22.00;99.90;;;;;;5100149;28;20177;-65
2021/06/05 08:04:39;;;;;;;39.33;32.25;;;22.20;99.90;;;;;;5094727;28;20669;-65
2021/06/05 08:07:05;;;;;;;42.53;32.88;;;22.20;99.90;;;;;;5110924;28;20191;-65
2021/06/05 08:09:31;;;;;;;41.28;32.00;;;22.20;99.90;;;;;;5112678;28;20699;-65
2021/06/05 08:11:57;;;;;;;38.53;33.08;;;22.50;99.90;;;;;;5108253;28;20253;-65
2021/06/05 08:14:23;;;;;;;41.70;32.17;;;22.60;99.90;;;;;;5075376;28;20187;-66
2021/06/05 08:16:48;;;;;;;40.75;33.35;;;22.80;99.90;;;;;;5074156;28;20169;-66
2021/06/05 08:19:14;;;;;;;42.08;33.58;;;22.90;99.90;;;;;;5093292;28;20189;-65
2021/06/05 08:21:43;;;;;;;40.25;32.53;;;22.90;99.90;;;;;;5112420;28;20274;-65
2021/06/05 08:24:10;;;;;;;37.92;31.23;;;22.80;99.90;;;;;;5112628;28;20241;-65
2021/06/05 08:26:36;;;;;;;35.83;30.83;;;22.80;99.90;;;;;;5092426;28;20196;-65
2021/06/05 08:29:02;;;;;;;35.47;29.80;;;22.90;99.90;;;;;;5091605;28;20294;-65
2021/06/05 08:31:28;;;;;;;35.63;30.70;;;23.00;99.90;;;;;;5110058;28;20216;-65
2021/06/05 08:33:54;;;;;;;38.53;30.02;;;22.90;99.90;;;;;;5112412;28;20172;-65
2021/06/05 08:36:23;;;;;;;36.03;30.88;;;22.40;99.90;;;;;;5095530;28;20227;-65
2021/06/05 08:38:49;;;;;;;37.40;31.17;;;22.20;99.90;;;;;;5090615;28;20625;-65
2021/06/05 08:41:30;;;;;;;36.63;31.60;;;22.00;99.90;;;;;;5106575;28;20276;-65
2021/06/05 08:44:23;;;;;;;37.80;31.75;;;21.90;99.90;;;;;;5092906;28;20176;-65
2021/06/05 08:46:54;;;;;;;37.05;32.33;;;21.80;99.90;;;;;;5096218;28;20193;-65
2021/06/05 08:49:26;;;;;;;37.53;31.30;;;21.70;99.90;;;;;;5111971;28;20269;-65
2021/06/05 08:51:55;;;;;;;43.85;35.38;;;21.30;99.90;;;;;;5093056;28;20638;-65
2021/06/05 08:54:58;;;;;;;45.03;34.57;;;21.00;99.90;;;;;;5091594;28;20166;-65
2021/06/05 08:57:41;;;;;;;39.22;33.70;;;20.90;99.90;;;;;;5091650;28;20173;-65
2021/06/05 09:00:26;;;;;;;44.40;34.58;;;20.90;99.90;;;;;;5092237;28;20582;-65
2021/06/05 09:02:57;;;;;;;38.37;31.90;;;21.00;99.90;;;;;;5091604;28;20173;-65
2021/06/05 09:05:30;;;;;;;44.50;36.10;;;21.00;99.90;;;;;;5095852;28;20185;-65
2021/06/05 09:07:56;;;;;;;45.23;37.23;;;20.80;99.90;;;;;;5111996;28;20534;-65
2021/06/05 09:10:24;;;;;;;48.37;38.50;;;20.60;99.90;;;;;;5107691;28;20205;-65
2021/06/05 09:12:50;;;;;;;44.03;35.47;;;20.50;99.90;;;;;;5091394;28;20486;-65
2021/06/05 09:15:27;;;;;;;43.80;36.57;;;20.50;99.90;;;;;;5111687;28;20171;-65
2021/06/05 09:17:55;;;;;;;45.57;35.53;;;20.50;99.90;;;;;;5100826;28;20698;-65
2021/06/05 09:20:24;;;;;;;52.77;38.83;;;20.50;99.90;;;;;;5091125;28;20162;-65
2021/06/05 09:22:51;;;;;;;46.30;38.00;;;20.40;99.90;;;;;;5101436;28;20638;-65
2021/06/05 09:25:23;;;;;;;53.17;40.93;;;20.40;99.90;;;;;;5111624;28;20172;-65
2021/06/05 09:27:49;;;;;;;51.15;41.03;;;20.30;99.90;;;;;;5101317;28;20268;-65
2021/06/05 09:30:36;;;;;;;56.43;42.03;;;20.30;99.90;;;;;;5091145;28;20284;-65
2021/06/05 09:33:05;;;;;;;57.37;41.67;;;20.20;99.90;;;;;;5101206;28;20177;-65
2021/06/05 09:35:49;;;;;;;58.27;41.80;;;20.00;99.90;;;;;;5111727;28;20540;-65
2021/06/05 09:38:38;;;;;;;58.67;43.37;;;20.00;99.90;;;;;;5099150;28;20193;-65
2021/06/05 09:41:17;;;;;;;54.57;41.10;;;20.10;99.90;;;;;;5091855;28;20241;-65
2021/06/05 09:43:45;;;;;;;54.20;41.20;;;20.00;99.90;;;;;;5087078;28;20177;-65
2021/06/05 09:46:37;;;;;;;59.43;45.03;;;19.90;99.90;;;;;;5100437;28;20181;-65
2021/06/05 09:49:15;;;;;;;57.50;42.00;;;19.80;99.90;;;;;;5087100;28;20225;-65
2021/06/05 09:51:44;;;;;;;59.67;43.13;;;20.00;99.90;;;;;;5095458;28;20173;-65
2021/06/05 09:54:15;;;;;;;51.57;39.73;;;20.20;99.90;;;;;;5115381;28;20242;-65
2021/06/05 09:56:47;;;;;;;51.07;39.43;;;20.50;99.90;;;;;;5114184;28;20515;-65
2021/06/05 09:59:32;;;;;;;56.33;42.27;;;20.60;99.90;;;;;;5094758;28;20565;-65
2021/06/05 10:02:16;;;;;;;49.80;39.08;;;20.70;99.90;;;;;;5097719;28;20176;-65
2021/06/05 10:04:42;;;;;;;46.50;37.40;;;21.00;99.90;;;;;;5097204;28;20180;-66
2021/06/05 10:07:28;;;;;;;53.63;38.60;;;21.20;99.90;;;;;;5110919;28;20565;-65
2021/06/05 10:10:04;;;;;;;53.58;36.92;;;21.30;99.90;;;;;;5094515;28;20563;-66
2021/06/05 10:12:36;;;;;;;59.55;40.83;;;21.40;99.90;;;;;;5101056;28;20180;-65
2021/06/05 10:15:12;;;;;;;57.75;41.28;;;21.40;99.90;;;;;;5096546;28;20180;-66
2021/06/05 10:17:58;;;;;;;57.95;40.05;;;21.70;99.90;;;;;;5108062;28;20173;-66
2021/06/05 10:20:38;;;;;;;63.95;40.40;;;22.00;99.90;;;;;;5094319;28;20550;-65
2021/06/05 10:23:04;;;;;;;56.70;39.53;;;22.20;99.90;;;;;;5104304;28;20176;-65
2021/06/05 10:26:01;;;;;;;56.75;37.15;;;22.50;99.90;;;;;;5113168;28;20539;-65
2021/06/05 10:28:36;;;;;;;63.50;41.95;;;22.80;99.90;;;;;;5098266;28;20320;-65
2021/06/05 10:31:04;;;;;;;58.40;38.15;;;22.60;99.90;;;;;;5101264;28;20670;-65
2021/06/05 10:33:57;;;;;;;60.08;40.13;;;22.30;99.90;;;;;;5095087;28;20173;-65
2021/06/05 10:36:28;;;;;;;71.68;43.35;;;22.20;99.90;;;;;;5108931;28;20208;-65
2021/06/05 10:39:03;;;;;;;68.68;43.40;;;22.30;99.90;;;;;;5113815;28;20217;-65
2021/06/05 10:41:36;;;;;;;58.67;40.22;;;22.60;99.90;;;;;;5098513;28;20260;-65
2021/06/05 10:44:05;;;;;;;63.05;41.63;;;22.80;99.90;;;;;;5094423;28;20250;-65
2021/06/05 10:46:43;;;;;;;61.17;42.25;;;22.90;99.90;;;;;;5109125;28;20203;-65
2021/06/05 10:49:37;;;;;;;59.67;41.50;;;22.80;99.90;;;;;;5098906;28;20205;-66
2021/06/05 10:52:29;;;;;;;61.90;44.78;;;22.60;99.90;;;;;;5094818;28;20237;-66
2021/06/05 10:55:01;;;;;;;66.70;47.55;;;22.60;99.90;;;;;;5083244;28;20185;-66
2021/06/05 10:57:34;;;;;;;67.05;44.60;;;22.70;99.90;;;;;;5106045;28;20642;-66
2021/06/05 11:00:06;;;;;;;58.35;42.63;;;22.50;99.90;;;;;;5113566;28;20193;-66
2021/06/05 11:03:30;;;;;;;62.08;43.05;;;22.70;99.90;;;;;;5113760;28;20180;-65
2021/06/05 11:06:09;;;;;;;59.85;42.70;;;22.60;99.90;;;;;;5031052;28;20222;-65
2021/06/05 11:08:44;;;;;;;56.88;42.97;;;22.70;99.90;;;;;;5114108;28;20195;-66
2021/06/05 11:11:11;;;;;;;54.78;39.05;;;23.20;99.90;;;;;;5113520;28;20208;-66
2021/06/05 11:13:41;;;;;;;59.13;45.35;;;23.70;99.90;;;;;;5114191;28;20167;-65
2021/06/05 11:16:18;;;;;;;62.83;45.67;;;23.90;99.90;;;;;;5095633;28;20169;-66
2021/06/05 11:18:47;;;;;;;55.35;43.28;;;24.20;99.90;;;;;;5095638;28;20254;-66
2021/06/05 11:21:22;;;;;;;65.70;47.28;;;24.30;99.90;;;;;;5113418;28;20169;-66
2021/06/05 11:23:57;;;;;;;64.53;44.83;;;24.20;99.90;;;;;;5114035;28;20168;-66
2021/06/05 11:26:35;;;;;;;68.18;46.35;;;24.00;99.90;;;;;;5113719;28;20179;-66
2021/06/05 11:29:21;;;;;;;70.70;45.60;;;23.60;99.90;;;;;;5113602;28;20200;-65
2021/06/05 11:31:54;;;;;;;58.05;43.90;;;23.30;99.90;;;;;;5112020;28;20660;-66
2021/06/05 11:34:29;;;;;;;55.20;42.17;;;23.00;99.90;;;;;;5113628;28;20172;-66
2021/06/05 11:37:01;;;;;;;63.83;42.38;;;22.90;99.90;;;;;;5113610;28;20629;-66
2021/06/05 11:39:27;;;;;;;62.95;47.33;;;23.00;99.90;;;;;;5113365;28;20212;-66
2021/06/05 11:41:55;;;;;;;58.05;42.63;;;22.90;99.90;;;;;;5113269;28;20173;-65
2021/06/05 11:44:28;;;;;;;57.80;42.25;;;23.00;99.90;;;;;;5113350;28;20555;-66
2021/06/05 11:47:34;;;;;;;60.67;45.97;;;23.00;99.90;;;;;;5113463;28;20183;-65
2021/06/05 11:50:12;;;;;;;73.47;52.45;;;23.00;99.90;;;;;;5094679;28;20208;-66
2021/06/05 11:52:43;;;;;;;82.80;58.20;;;22.90;99.90;;;;;;5113299;28;20169;-66
2021/06/05 11:55:15;;;;;;;80.53;58.55;;;22.70;99.90;;;;;;5094570;28;20188;-65
2021/06/05 11:58:06;;;;;;;95.28;62.25;;;22.50;99.90;;;;;;5113333;28;20286;-66
2021/06/05 12:00:33;;;;;;;91.30;63.58;;;21.90;99.90;;;;;;5113124;28;20259;-66
2021/06/05 12:03:02;;;;;;;78.40;55.00;;;21.70;99.90;;;;;;5112509;28;20173;-65
2021/06/05 12:05:41;;;;;;;93.72;64.50;;;21.30;99.90;;;;;;5113429;28;20648;-66
2021/06/05 12:08:29;;;;;;;96.03;64.38;;;21.20;99.90;;;;;;5113028;28;20192;-65
2021/06/05 12:10:57;;;;;;;96.57;63.55;;;21.30;99.90;;;;;;5112545;28;20200;-66
2021/06/05 12:13:36;;;;;;;94.38;59.55;;;21.40;99.90;;;;;;5112067;28;20240;-67
2021/06/05 12:16:16;;;;;;;104.55;65.95;;;21.30;99.90;;;;;;5112918;28;20189;-67
2021/06/05 12:18:46;;;;;;;111.27;72.40;;;21.00;99.90;;;;;;5113198;28;20181;-67
2021/06/05 12:21:34;;;;;;;114.10;72.68;;;21.00;99.90;;;;;;5093976;28;20193;-65
2021/06/05 12:24:23;;;;;;;125.70;74.47;;;21.20;99.90;;;;;;5112756;28;20184;-65
2021/06/05 12:26:56;;;;;;;109.57;70.47;;;21.10;99.90;;;;;;5112794;28;20579;-66
2021/06/05 12:29:50;;;;;;;114.37;77.97;;;20.60;99.90;;;;;;5113074;28;20244;-66
2021/06/05 12:32:26;;;;;;;108.47;72.63;;;20.50;99.90;;;;;;5110560;28;20234;-65
2021/06/05 12:34:53;;;;;;;104.83;72.37;;;20.70;99.90;;;;;;5115197;28;20169;-66
2021/06/05 12:37:31;;;;;;;93.07;65.23;;;20.70;99.90;;;;;;5112496;28;20169;-65
2021/06/05 12:40:00;;;;;;;103.50;68.37;;;20.70;99.90;;;;;;5094009;28;20274;-66
2021/06/05 12:42:35;;;;;;;104.57;68.10;;;20.40;99.90;;;;;;5112378;28;20169;-66